sensor_id;sensor_type;location;lat;lon;timestamp;P1;durP1;ratioP1;P2;durP2;ratioP2
18084;SDS011;9169;44.492;11.372;2023-01-29T00:00:19;29.27;;;19.43;;
18084;SDS011;9169;44.492;11.372;2023-01-29T00:02:49;36.93;;;23.80;;
18084;SDS011;9169;44.492;11.372;2023-01-29T00:05:18;79.90;;;42.80;;
18084;SDS011;9169;44.492;11.372;2023-01-29T00:07:55;33.90;;;20.87;;
18084;SDS011;9169;44.492;11.372;2023-01-29T00:10:24;26.90;;;18.07;;
18084;SDS011;9169;44.492;11.372;2023-01-29T00:12:53;24.53;;;17.47;;
18084;SDS011;9169;44.492;11.372;2023-01-29T00:15:22;26.70;;;18.20;;
18084;SDS011;9169;44.492;11.372;2023-01-29T00:17:50;24.63;;;16.63;;
18084;SDS011;9169;44.492;11.372;2023-01-29T00:20:19;25.73;;;17.90;;
18084;SDS011;9169;44.492;11.372;2023-01-29T00:22:48;26.77;;;18.60;;
18084;SDS011;9169;44.492;11.372;2023-01-29T00:25:18;26.07;;;17.70;;
18084;SDS011;9169;44.492;11.372;2023-01-29T00:27:47;26.00;;;17.30;;
18084;SDS011;9169;44.492;11.372;2023-01-29T00:30:16;27.43;;;17.80;;
18084;SDS011;9169;44.492;11.372;2023-01-29T00:32:46;25.70;;;17.13;;
18084;SDS011;9169;44.492;11.372;2023-01-29T00:35:16;30.20;;;18.00;;
18084;SDS011;9169;44.492;11.372;2023-01-29T00:37:45;29.13;;;18.17;;
18084;SDS011;9169;44.492;11.372;2023-01-29T00:40:14;23.60;;;16.80;;
18084;SDS011;9169;44.492;11.372;2023-01-29T00:42:46;26.10;;;17.90;;
18084;SDS011;9169;44.492;11.372;2023-01-29T00:45:32;27.13;;;17.57;;
18084;SDS011;9169;44.492;11.372;2023-01-29T00:48:04;27.70;;;17.73;;
18084;SDS011;9169;44.492;11.372;2023-01-29T00:50:33;25.13;;;17.50;;
18084;SDS011;9169;44.492;11.372;2023-01-29T00:53:02;25.07;;;17.63;;
18084;SDS011;9169;44.492;11.372;2023-01-29T00:55:31;30.50;;;19.63;;
18084;SDS011;9169;44.492;11.372;2023-01-29T00:58:02;26.67;;;16.97;;
18084;SDS011;9169;44.492;11.372;2023-01-29T01:00:31;26.63;;;16.67;;
18084;SDS011;9169;44.492;11.372;2023-01-29T01:02:59;31.30;;;20.60;;
18084;SDS011;9169;44.492;11.372;2023-01-29T01:05:33;27.80;;;18.93;;
18084;SDS011;9169;44.492;11.372;2023-01-29T01:08:03;27.10;;;18.03;;
18084;SDS011;9169;44.492;11.372;2023-01-29T01:11:00;22.97;;;16.70;;
18084;SDS011;9169;44.492;11.372;2023-01-29T01:13:31;25.07;;;18.40;;
18084;SDS011;9169;44.492;11.372;2023-01-29T01:16:01;27.73;;;18.43;;
18084;SDS011;9169;44.492;11.372;2023-01-29T01:18:35;26.97;;;17.27;;
18084;SDS011;9169;44.492;11.372;2023-01-29T01:21:05;26.43;;;16.80;;
18084;SDS011;9169;44.492;11.372;2023-01-29T01:23:34;25.70;;;17.90;;
18084;SDS011;9169;44.492;11.372;2023-01-29T01:26:07;24.43;;;17.37;;
18084;SDS011;9169;44.492;11.372;2023-01-29T01:28:39;26.30;;;17.50;;
18084;SDS011;9169;44.492;11.372;2023-01-29T01:31:08;25.90;;;18.00;;
18084;SDS011;9169;44.492;11.372;2023-01-29T01:33:37;27.80;;;17.80;;
18084;SDS011;9169;44.492;11.372;2023-01-29T01:36:07;24.40;;;16.80;;
18084;SDS011;9169;44.492;11.372;2023-01-29T01:38:36;28.20;;;19.30;;
18084;SDS011;9169;44.492;11.372;2023-01-29T01:41:11;33.40;;;21.30;;
18084;SDS011;9169;44.492;11.372;2023-01-29T01:43:51;25.67;;;17.80;;
18084;SDS011;9169;44.492;11.372;2023-01-29T01:46:21;26.03;;;17.67;;
18084;SDS011;9169;44.492;11.372;2023-01-29T01:48:51;28.07;;;18.33;;
18084;SDS011;9169;44.492;11.372;2023-01-29T01:51:23;24.50;;;17.53;;
18084;SDS011;9169;44.492;11.372;2023-01-29T01:53:54;24.70;;;17.07;;
18084;SDS011;9169;44.492;11.372;2023-01-29T01:56:28;24.53;;;17.20;;
18084;SDS011;9169;44.492;11.372;2023-01-29T01:59:06;27.00;;;17.50;;
18084;SDS011;9169;44.492;11.372;2023-01-29T02:01:39;27.17;;;17.60;;
18084;SDS011;9169;44.492;11.372;2023-01-29T02:04:11;27.93;;;17.63;;
18084;SDS011;9169;44.492;11.372;2023-01-29T02:07:02;29.53;;;18.07;;
18084;SDS011;9169;44.492;11.372;2023-01-29T02:09:51;23.30;;;16.37;;
18084;SDS011;9169;44.492;11.372;2023-01-29T02:12:27;27.47;;;18.30;;
18084;SDS011;9169;44.492;11.372;2023-01-29T02:14:58;28.00;;;16.33;;
18084;SDS011;9169;44.492;11.372;2023-01-29T02:17:28;27.50;;;17.37;;
18084;SDS011;9169;44.492;11.372;2023-01-29T02:20:00;34.67;;;23.83;;
18084;SDS011;9169;44.492;11.372;2023-01-29T02:22:40;25.60;;;18.47;;
18084;SDS011;9169;44.492;11.372;2023-01-29T02:25:32;24.10;;;16.60;;
18084;SDS011;9169;44.492;11.372;2023-01-29T02:28:21;26.40;;;17.03;;
18084;SDS011;9169;44.492;11.372;2023-01-29T02:31:00;22.37;;;16.57;;
18084;SDS011;9169;44.492;11.372;2023-01-29T02:33:39;26.73;;;17.80;;
18084;SDS011;9169;44.492;11.372;2023-01-29T02:36:18;25.53;;;17.77;;
18084;SDS011;9169;44.492;11.372;2023-01-29T02:38:56;25.87;;;17.20;;
18084;SDS011;9169;44.492;11.372;2023-01-29T02:41:33;26.30;;;16.70;;
18084;SDS011;9169;44.492;11.372;2023-01-29T02:44:08;26.10;;;17.77;;
18084;SDS011;9169;44.492;11.372;2023-01-29T02:46:47;23.90;;;17.07;;
18084;SDS011;9169;44.492;11.372;2023-01-29T02:49:23;25.00;;;17.50;;
18084;SDS011;9169;44.492;11.372;2023-01-29T02:51:59;22.70;;;17.27;;
18084;SDS011;9169;44.492;11.372;2023-01-29T02:54:36;26.07;;;16.50;;
18084;SDS011;9169;44.492;11.372;2023-01-29T02:57:10;22.33;;;16.27;;
18084;SDS011;9169;44.492;11.372;2023-01-29T02:59:47;25.03;;;18.03;;
18084;SDS011;9169;44.492;11.372;2023-01-29T03:02:19;25.93;;;16.70;;
18084;SDS011;9169;44.492;11.372;2023-01-29T03:04:59;25.10;;;17.63;;
18084;SDS011;9169;44.492;11.372;2023-01-29T03:07:35;25.50;;;19.20;;
18084;SDS011;9169;44.492;11.372;2023-01-29T03:10:30;29.60;;;18.00;;
18084;SDS011;9169;44.492;11.372;2023-01-29T03:13:07;31.77;;;18.57;;
18084;SDS011;9169;44.492;11.372;2023-01-29T03:15:47;28.30;;;17.83;;
18084;SDS011;9169;44.492;11.372;2023-01-29T03:18:36;27.03;;;18.17;;
18084;SDS011;9169;44.492;11.372;2023-01-29T03:21:13;29.10;;;18.40;;
18084;SDS011;9169;44.492;11.372;2023-01-29T03:24:07;25.53;;;17.50;;
18084;SDS011;9169;44.492;11.372;2023-01-29T03:26:57;25.57;;;17.47;;
18084;SDS011;9169;44.492;11.372;2023-01-29T03:29:48;26.60;;;18.47;;
18084;SDS011;9169;44.492;11.372;2023-01-29T03:32:51;26.77;;;17.60;;
18084;SDS011;9169;44.492;11.372;2023-01-29T03:35:25;23.70;;;17.13;;
18084;SDS011;9169;44.492;11.372;2023-01-29T03:38:02;25.13;;;17.13;;
18084;SDS011;9169;44.492;11.372;2023-01-29T03:40:34;25.63;;;17.73;;
18084;SDS011;9169;44.492;11.372;2023-01-29T03:43:10;26.77;;;18.20;;
18084;SDS011;9169;44.492;11.372;2023-01-29T03:45:49;28.20;;;17.60;;
18084;SDS011;9169;44.492;11.372;2023-01-29T03:48:29;26.40;;;17.77;;
18084;SDS011;9169;44.492;11.372;2023-01-29T03:51:09;29.80;;;18.40;;
18084;SDS011;9169;44.492;11.372;2023-01-29T03:53:47;26.57;;;16.87;;
18084;SDS011;9169;44.492;11.372;2023-01-29T03:56:28;26.27;;;18.10;;
18084;SDS011;9169;44.492;11.372;2023-01-29T03:59:11;28.17;;;17.37;;
18084;SDS011;9169;44.492;11.372;2023-01-29T04:02:04;27.70;;;18.40;;
18084;SDS011;9169;44.492;11.372;2023-01-29T04:04:39;27.43;;;18.00;;
18084;SDS011;9169;44.492;11.372;2023-01-29T04:07:11;26.43;;;18.37;;
18084;SDS011;9169;44.492;11.372;2023-01-29T04:09:45;27.77;;;17.40;;
18084;SDS011;9169;44.492;11.372;2023-01-29T04:12:17;31.80;;;18.77;;
18084;SDS011;9169;44.492;11.372;2023-01-29T04:14:50;26.90;;;18.17;;
18084;SDS011;9169;44.492;11.372;2023-01-29T04:17:23;32.20;;;18.07;;
18084;SDS011;9169;44.492;11.372;2023-01-29T04:20:11;26.90;;;17.27;;
18084;SDS011;9169;44.492;11.372;2023-01-29T04:22:42;28.30;;;18.33;;
18084;SDS011;9169;44.492;11.372;2023-01-29T04:25:14;26.20;;;18.37;;
18084;SDS011;9169;44.492;11.372;2023-01-29T04:27:49;24.90;;;17.40;;
18084;SDS011;9169;44.492;11.372;2023-01-29T04:30:26;29.37;;;19.47;;
18084;SDS011;9169;44.492;11.372;2023-01-29T04:33:10;28.50;;;18.43;;
18084;SDS011;9169;44.492;11.372;2023-01-29T04:35:54;27.87;;;19.17;;
18084;SDS011;9169;44.492;11.372;2023-01-29T04:38:49;28.53;;;17.90;;
18084;SDS011;9169;44.492;11.372;2023-01-29T04:41:30;26.10;;;17.73;;
18084;SDS011;9169;44.492;11.372;2023-01-29T04:44:04;30.10;;;18.13;;
18084;SDS011;9169;44.492;11.372;2023-01-29T04:46:45;30.50;;;18.57;;
18084;SDS011;9169;44.492;11.372;2023-01-29T04:49:18;29.03;;;18.50;;
18084;SDS011;9169;44.492;11.372;2023-01-29T04:51:59;25.90;;;17.20;;
18084;SDS011;9169;44.492;11.372;2023-01-29T04:54:39;28.80;;;18.77;;
18084;SDS011;9169;44.492;11.372;2023-01-29T04:57:18;26.57;;;17.10;;
18084;SDS011;9169;44.492;11.372;2023-01-29T04:59:52;29.87;;;18.33;;
18084;SDS011;9169;44.492;11.372;2023-01-29T05:02:26;31.10;;;19.20;;
18084;SDS011;9169;44.492;11.372;2023-01-29T05:04:56;25.27;;;17.13;;
18084;SDS011;9169;44.492;11.372;2023-01-29T05:07:27;25.40;;;17.17;;
18084;SDS011;9169;44.492;11.372;2023-01-29T05:09:58;31.90;;;17.53;;
18084;SDS011;9169;44.492;11.372;2023-01-29T05:12:27;26.83;;;18.90;;
18084;SDS011;9169;44.492;11.372;2023-01-29T05:14:57;27.90;;;17.07;;
18084;SDS011;9169;44.492;11.372;2023-01-29T05:17:29;25.40;;;17.70;;
18084;SDS011;9169;44.492;11.372;2023-01-29T05:19:58;24.93;;;17.37;;
18084;SDS011;9169;44.492;11.372;2023-01-29T05:22:28;25.20;;;17.43;;
18084;SDS011;9169;44.492;11.372;2023-01-29T05:24:57;31.07;;;18.10;;
18084;SDS011;9169;44.492;11.372;2023-01-29T05:27:28;29.10;;;18.30;;
18084;SDS011;9169;44.492;11.372;2023-01-29T05:30:19;28.60;;;19.47;;
18084;SDS011;9169;44.492;11.372;2023-01-29T05:32:48;28.60;;;18.87;;
18084;SDS011;9169;44.492;11.372;2023-01-29T05:35:17;29.17;;;19.30;;
18084;SDS011;9169;44.492;11.372;2023-01-29T05:37:47;27.27;;;18.27;;
18084;SDS011;9169;44.492;11.372;2023-01-29T05:40:16;27.57;;;18.30;;
18084;SDS011;9169;44.492;11.372;2023-01-29T05:42:45;29.10;;;18.40;;
18084;SDS011;9169;44.492;11.372;2023-01-29T05:45:13;25.73;;;17.10;;
18084;SDS011;9169;44.492;11.372;2023-01-29T05:47:42;27.23;;;18.67;;
18084;SDS011;9169;44.492;11.372;2023-01-29T05:50:11;32.90;;;19.70;;
18084;SDS011;9169;44.492;11.372;2023-01-29T05:52:41;28.37;;;18.60;;
18084;SDS011;9169;44.492;11.372;2023-01-29T05:55:12;26.90;;;18.20;;
18084;SDS011;9169;44.492;11.372;2023-01-29T05:57:40;23.87;;;16.90;;
18084;SDS011;9169;44.492;11.372;2023-01-29T06:00:10;26.60;;;18.07;;
18084;SDS011;9169;44.492;11.372;2023-01-29T06:02:39;32.00;;;18.40;;
18084;SDS011;9169;44.492;11.372;2023-01-29T06:05:08;26.93;;;18.77;;
18084;SDS011;9169;44.492;11.372;2023-01-29T06:07:37;29.57;;;18.43;;
18084;SDS011;9169;44.492;11.372;2023-01-29T06:10:13;27.97;;;18.83;;
18084;SDS011;9169;44.492;11.372;2023-01-29T06:12:43;27.80;;;18.90;;
18084;SDS011;9169;44.492;11.372;2023-01-29T06:15:12;28.00;;;18.03;;
18084;SDS011;9169;44.492;11.372;2023-01-29T06:17:42;30.47;;;19.27;;
18084;SDS011;9169;44.492;11.372;2023-01-29T06:20:11;28.30;;;18.83;;
18084;SDS011;9169;44.492;11.372;2023-01-29T06:22:40;27.00;;;18.80;;
18084;SDS011;9169;44.492;11.372;2023-01-29T06:25:09;35.40;;;19.70;;
18084;SDS011;9169;44.492;11.372;2023-01-29T06:27:39;29.43;;;18.30;;
18084;SDS011;9169;44.492;11.372;2023-01-29T06:30:08;31.13;;;19.20;;
18084;SDS011;9169;44.492;11.372;2023-01-29T06:32:38;29.13;;;18.73;;
18084;SDS011;9169;44.492;11.372;2023-01-29T06:35:07;27.50;;;18.40;;
18084;SDS011;9169;44.492;11.372;2023-01-29T06:37:36;28.43;;;19.00;;
18084;SDS011;9169;44.492;11.372;2023-01-29T06:40:06;30.80;;;18.87;;
18084;SDS011;9169;44.492;11.372;2023-01-29T06:42:36;31.00;;;19.67;;
18084;SDS011;9169;44.492;11.372;2023-01-29T06:45:06;28.67;;;19.57;;
18084;SDS011;9169;44.492;11.372;2023-01-29T06:47:35;28.97;;;18.60;;
18084;SDS011;9169;44.492;11.372;2023-01-29T06:50:04;31.40;;;19.40;;
18084;SDS011;9169;44.492;11.372;2023-01-29T06:52:33;28.00;;;18.27;;
18084;SDS011;9169;44.492;11.372;2023-01-29T06:55:02;27.20;;;19.23;;
18084;SDS011;9169;44.492;11.372;2023-01-29T06:57:31;32.30;;;18.07;;
18084;SDS011;9169;44.492;11.372;2023-01-29T07:00:00;29.50;;;18.53;;
18084;SDS011;9169;44.492;11.372;2023-01-29T07:02:30;31.40;;;20.13;;
18084;SDS011;9169;44.492;11.372;2023-01-29T07:04:59;29.33;;;19.20;;
18084;SDS011;9169;44.492;11.372;2023-01-29T07:07:28;28.80;;;19.00;;
18084;SDS011;9169;44.492;11.372;2023-01-29T07:09:57;30.97;;;20.30;;
18084;SDS011;9169;44.492;11.372;2023-01-29T07:12:25;31.53;;;19.33;;
18084;SDS011;9169;44.492;11.372;2023-01-29T07:14:54;30.70;;;19.07;;
18084;SDS011;9169;44.492;11.372;2023-01-29T07:17:23;28.30;;;18.63;;
18084;SDS011;9169;44.492;11.372;2023-01-29T07:19:53;32.50;;;20.23;;
18084;SDS011;9169;44.492;11.372;2023-01-29T07:22:21;28.90;;;19.20;;
18084;SDS011;9169;44.492;11.372;2023-01-29T07:24:50;24.97;;;17.70;;
18084;SDS011;9169;44.492;11.372;2023-01-29T07:27:19;26.77;;;18.27;;
18084;SDS011;9169;44.492;11.372;2023-01-29T07:29:47;28.30;;;19.60;;
18084;SDS011;9169;44.492;11.372;2023-01-29T07:32:16;33.00;;;19.00;;
18084;SDS011;9169;44.492;11.372;2023-01-29T07:34:44;29.67;;;19.80;;
18084;SDS011;9169;44.492;11.372;2023-01-29T07:37:14;27.77;;;18.80;;
18084;SDS011;9169;44.492;11.372;2023-01-29T07:39:43;30.93;;;20.43;;
18084;SDS011;9169;44.492;11.372;2023-01-29T07:42:13;32.47;;;19.80;;
18084;SDS011;9169;44.492;11.372;2023-01-29T07:44:42;28.83;;;18.97;;
18084;SDS011;9169;44.492;11.372;2023-01-29T07:47:13;29.67;;;19.37;;
18084;SDS011;9169;44.492;11.372;2023-01-29T07:49:42;26.70;;;19.20;;
18084;SDS011;9169;44.492;11.372;2023-01-29T07:52:11;26.53;;;18.63;;
18084;SDS011;9169;44.492;11.372;2023-01-29T07:54:41;29.77;;;19.77;;
18084;SDS011;9169;44.492;11.372;2023-01-29T07:57:10;30.33;;;19.53;;
18084;SDS011;9169;44.492;11.372;2023-01-29T07:59:39;28.50;;;19.43;;
18084;SDS011;9169;44.492;11.372;2023-01-29T08:02:07;28.20;;;19.10;;
18084;SDS011;9169;44.492;11.372;2023-01-29T08:04:36;30.10;;;19.80;;
18084;SDS011;9169;44.492;11.372;2023-01-29T08:07:05;28.77;;;19.47;;
18084;SDS011;9169;44.492;11.372;2023-01-29T08:09:35;31.87;;;20.13;;
18084;SDS011;9169;44.492;11.372;2023-01-29T08:12:05;32.20;;;19.23;;
18084;SDS011;9169;44.492;11.372;2023-01-29T08:14:34;31.53;;;20.70;;
18084;SDS011;9169;44.492;11.372;2023-01-29T08:17:02;28.33;;;20.20;;
18084;SDS011;9169;44.492;11.372;2023-01-29T08:19:31;27.27;;;18.50;;
18084;SDS011;9169;44.492;11.372;2023-01-29T08:22:00;31.00;;;21.00;;
18084;SDS011;9169;44.492;11.372;2023-01-29T08:24:28;29.10;;;19.47;;
18084;SDS011;9169;44.492;11.372;2023-01-29T08:27:01;29.47;;;19.37;;
18084;SDS011;9169;44.492;11.372;2023-01-29T08:29:31;30.17;;;20.00;;
18084;SDS011;9169;44.492;11.372;2023-01-29T08:32:00;26.80;;;20.00;;
18084;SDS011;9169;44.492;11.372;2023-01-29T08:34:29;30.37;;;20.30;;
18084;SDS011;9169;44.492;11.372;2023-01-29T08:36:58;30.60;;;19.50;;
18084;SDS011;9169;44.492;11.372;2023-01-29T08:39:26;28.77;;;18.63;;
18084;SDS011;9169;44.492;11.372;2023-01-29T08:41:55;26.20;;;18.73;;
18084;SDS011;9169;44.492;11.372;2023-01-29T08:44:24;27.00;;;20.17;;
18084;SDS011;9169;44.492;11.372;2023-01-29T08:46:54;24.63;;;18.33;;
18084;SDS011;9169;44.492;11.372;2023-01-29T08:49:23;27.13;;;19.40;;
18084;SDS011;9169;44.492;11.372;2023-01-29T08:51:53;32.60;;;20.40;;
18084;SDS011;9169;44.492;11.372;2023-01-29T08:54:23;26.20;;;19.67;;
18084;SDS011;9169;44.492;11.372;2023-01-29T08:56:52;26.90;;;20.43;;
18084;SDS011;9169;44.492;11.372;2023-01-29T08:59:20;26.20;;;20.60;;
18084;SDS011;9169;44.492;11.372;2023-01-29T09:01:49;29.83;;;21.67;;
18084;SDS011;9169;44.492;11.372;2023-01-29T09:04:19;28.00;;;20.97;;
18084;SDS011;9169;44.492;11.372;2023-01-29T09:06:49;29.03;;;21.40;;
18084;SDS011;9169;44.492;11.372;2023-01-29T09:09:17;30.13;;;19.73;;
18084;SDS011;9169;44.492;11.372;2023-01-29T09:11:46;31.53;;;21.80;;
18084;SDS011;9169;44.492;11.372;2023-01-29T09:14:15;27.63;;;18.80;;
18084;SDS011;9169;44.492;11.372;2023-01-29T09:16:44;24.03;;;18.57;;
18084;SDS011;9169;44.492;11.372;2023-01-29T09:19:13;24.97;;;19.63;;
18084;SDS011;9169;44.492;11.372;2023-01-29T09:21:43;29.37;;;20.70;;
18084;SDS011;9169;44.492;11.372;2023-01-29T09:24:12;24.90;;;18.90;;
18084;SDS011;9169;44.492;11.372;2023-01-29T09:26:41;26.70;;;20.60;;
18084;SDS011;9169;44.492;11.372;2023-01-29T09:29:09;23.97;;;19.10;;
18084;SDS011;9169;44.492;11.372;2023-01-29T09:31:38;29.60;;;19.67;;
18084;SDS011;9169;44.492;11.372;2023-01-29T09:34:07;25.90;;;19.70;;
18084;SDS011;9169;44.492;11.372;2023-01-29T09:36:37;25.23;;;20.03;;
18084;SDS011;9169;44.492;11.372;2023-01-29T09:39:07;26.70;;;19.80;;
18084;SDS011;9169;44.492;11.372;2023-01-29T09:41:40;30.33;;;20.77;;
18084;SDS011;9169;44.492;11.372;2023-01-29T09:44:18;26.23;;;19.90;;
18084;SDS011;9169;44.492;11.372;2023-01-29T09:46:52;31.23;;;19.37;;
18084;SDS011;9169;44.492;11.372;2023-01-29T09:49:23;29.13;;;20.20;;
18084;SDS011;9169;44.492;11.372;2023-01-29T09:51:56;30.93;;;20.27;;
18084;SDS011;9169;44.492;11.372;2023-01-29T09:54:31;25.50;;;19.57;;
18084;SDS011;9169;44.492;11.372;2023-01-29T09:57:03;28.57;;;20.80;;
18084;SDS011;9169;44.492;11.372;2023-01-29T09:59:39;27.20;;;20.30;;
18084;SDS011;9169;44.492;11.372;2023-01-29T10:02:09;27.50;;;19.80;;
18084;SDS011;9169;44.492;11.372;2023-01-29T10:07:53;27.70;;;20.00;;
18084;SDS011;9169;44.492;11.372;2023-01-29T10:10:54;30.20;;;20.27;;
18084;SDS011;9169;44.492;11.372;2023-01-29T10:13:30;25.93;;;19.50;;
18084;SDS011;9169;44.492;11.372;2023-01-29T10:16:12;27.67;;;19.47;;
18084;SDS011;9169;44.492;11.372;2023-01-29T10:19:01;29.00;;;19.93;;
18084;SDS011;9169;44.492;11.372;2023-01-29T10:21:49;26.50;;;19.20;;
18084;SDS011;9169;44.492;11.372;2023-01-29T10:24:30;30.67;;;21.50;;
18084;SDS011;9169;44.492;11.372;2023-01-29T10:27:10;26.70;;;20.17;;
18084;SDS011;9169;44.492;11.372;2023-01-29T10:29:42;29.73;;;17.97;;
18084;SDS011;9169;44.492;11.372;2023-01-29T10:32:13;26.30;;;20.00;;
18084;SDS011;9169;44.492;11.372;2023-01-29T10:34:45;27.27;;;19.37;;
18084;SDS011;9169;44.492;11.372;2023-01-29T10:37:17;32.07;;;21.23;;
18084;SDS011;9169;44.492;11.372;2023-01-29T10:39:50;32.93;;;20.90;;
18084;SDS011;9169;44.492;11.372;2023-01-29T10:42:22;30.70;;;21.00;;
18084;SDS011;9169;44.492;11.372;2023-01-29T10:44:59;31.10;;;20.37;;
18084;SDS011;9169;44.492;11.372;2023-01-29T10:50:40;28.10;;;19.80;;
18084;SDS011;9169;44.492;11.372;2023-01-29T10:53:30;28.17;;;20.43;;
18084;SDS011;9169;44.492;11.372;2023-01-29T10:56:13;27.60;;;19.93;;
18084;SDS011;9169;44.492;11.372;2023-01-29T10:58:57;25.70;;;20.10;;
18084;SDS011;9169;44.492;11.372;2023-01-29T11:01:28;32.13;;;19.40;;
18084;SDS011;9169;44.492;11.372;2023-01-29T11:03:58;27.73;;;20.43;;
18084;SDS011;9169;44.492;11.372;2023-01-29T11:06:29;28.43;;;20.20;;
18084;SDS011;9169;44.492;11.372;2023-01-29T11:09:00;29.77;;;20.80;;
18084;SDS011;9169;44.492;11.372;2023-01-29T11:11:35;27.77;;;20.27;;
18084;SDS011;9169;44.492;11.372;2023-01-29T11:14:11;29.43;;;20.27;;
18084;SDS011;9169;44.492;11.372;2023-01-29T11:16:43;27.33;;;20.53;;
18084;SDS011;9169;44.492;11.372;2023-01-29T11:19:15;26.03;;;19.40;;
18084;SDS011;9169;44.492;11.372;2023-01-29T11:21:50;26.40;;;18.90;;
18084;SDS011;9169;44.492;11.372;2023-01-29T11:24:22;28.03;;;19.63;;
18084;SDS011;9169;44.492;11.372;2023-01-29T11:26:53;26.93;;;18.97;;
18084;SDS011;9169;44.492;11.372;2023-01-29T11:32:14;27.97;;;19.63;;
18084;SDS011;9169;44.492;11.372;2023-01-29T11:34:56;26.90;;;18.90;;
18084;SDS011;9169;44.492;11.372;2023-01-29T11:37:31;32.43;;;21.70;;
18084;SDS011;9169;44.492;11.372;2023-01-29T11:40:25;31.40;;;20.97;;
18084;SDS011;9169;44.492;11.372;2023-01-29T11:45:49;26.47;;;19.20;;
18084;SDS011;9169;44.492;11.372;2023-01-29T11:48:20;31.20;;;21.30;;
18084;SDS011;9169;44.492;11.372;2023-01-29T11:50:54;28.30;;;19.97;;
18084;SDS011;9169;44.492;11.372;2023-01-29T11:53:31;28.00;;;20.00;;
18084;SDS011;9169;44.492;11.372;2023-01-29T11:56:04;26.00;;;18.27;;
18084;SDS011;9169;44.492;11.372;2023-01-29T11:58:46;30.13;;;20.07;;
18084;SDS011;9169;44.492;11.372;2023-01-29T12:01:26;28.60;;;19.17;;
18084;SDS011;9169;44.492;11.372;2023-01-29T12:04:00;25.77;;;19.10;;
18084;SDS011;9169;44.492;11.372;2023-01-29T12:06:39;30.20;;;20.20;;
18084;SDS011;9169;44.492;11.372;2023-01-29T12:09:14;28.47;;;20.10;;
18084;SDS011;9169;44.492;11.372;2023-01-29T12:11:45;28.30;;;20.43;;
18084;SDS011;9169;44.492;11.372;2023-01-29T12:14:25;29.33;;;20.27;;
18084;SDS011;9169;44.492;11.372;2023-01-29T12:16:57;31.50;;;22.47;;
18084;SDS011;9169;44.492;11.372;2023-01-29T12:19:31;25.63;;;19.40;;
18084;SDS011;9169;44.492;11.372;2023-01-29T12:22:07;23.67;;;17.70;;
18084;SDS011;9169;44.492;11.372;2023-01-29T12:24:40;23.87;;;16.30;;
18084;SDS011;9169;44.492;11.372;2023-01-29T12:27:17;23.67;;;17.13;;
18084;SDS011;9169;44.492;11.372;2023-01-29T12:29:51;24.47;;;17.33;;
18084;SDS011;9169;44.492;11.372;2023-01-29T12:32:28;26.47;;;17.97;;
18084;SDS011;9169;44.492;11.372;2023-01-29T12:35:03;23.23;;;16.50;;
18084;SDS011;9169;44.492;11.372;2023-01-29T12:37:39;21.93;;;15.30;;
18084;SDS011;9169;44.492;11.372;2023-01-29T12:40:12;22.77;;;15.77;;
18084;SDS011;9169;44.492;11.372;2023-01-29T12:42:43;22.83;;;17.50;;
18084;SDS011;9169;44.492;11.372;2023-01-29T12:45:16;22.13;;;15.97;;
18084;SDS011;9169;44.492;11.372;2023-01-29T12:47:48;21.20;;;15.33;;
18084;SDS011;9169;44.492;11.372;2023-01-29T12:50:20;22.40;;;14.90;;
18084;SDS011;9169;44.492;11.372;2023-01-29T12:52:54;21.83;;;15.80;;
18084;SDS011;9169;44.492;11.372;2023-01-29T12:55:26;18.63;;;14.07;;
18084;SDS011;9169;44.492;11.372;2023-01-29T12:58:00;19.40;;;14.60;;
18084;SDS011;9169;44.492;11.372;2023-01-29T13:00:31;18.10;;;11.90;;
18084;SDS011;9169;44.492;11.372;2023-01-29T13:03:06;15.90;;;11.70;;
18084;SDS011;9169;44.492;11.372;2023-01-29T13:05:43;18.13;;;12.97;;
18084;SDS011;9169;44.492;11.372;2023-01-29T13:08:16;18.83;;;13.17;;
18084;SDS011;9169;44.492;11.372;2023-01-29T13:10:49;17.87;;;12.47;;
18084;SDS011;9169;44.492;11.372;2023-01-29T13:13:21;16.80;;;12.07;;
18084;SDS011;9169;44.492;11.372;2023-01-29T13:15:57;20.07;;;13.13;;
18084;SDS011;9169;44.492;11.372;2023-01-29T13:18:35;14.90;;;11.10;;
18084;SDS011;9169;44.492;11.372;2023-01-29T13:21:10;15.93;;;11.40;;
18084;SDS011;9169;44.492;11.372;2023-01-29T13:23:42;15.93;;;11.67;;
18084;SDS011;9169;44.492;11.372;2023-01-29T13:26:16;15.60;;;12.60;;
18084;SDS011;9169;44.492;11.372;2023-01-29T13:28:46;17.23;;;11.97;;
18084;SDS011;9169;44.492;11.372;2023-01-29T13:31:28;19.13;;;10.87;;
18084;SDS011;9169;44.492;11.372;2023-01-29T13:34:01;17.10;;;12.23;;
18084;SDS011;9169;44.492;11.372;2023-01-29T13:36:36;21.00;;;11.57;;
18084;SDS011;9169;44.492;11.372;2023-01-29T13:39:15;15.17;;;10.33;;
18084;SDS011;9169;44.492;11.372;2023-01-29T13:41:49;14.40;;;10.83;;
18084;SDS011;9169;44.492;11.372;2023-01-29T13:44:21;14.33;;;10.93;;
18084;SDS011;9169;44.492;11.372;2023-01-29T13:46:53;16.67;;;11.33;;
18084;SDS011;9169;44.492;11.372;2023-01-29T13:49:35;16.93;;;12.60;;
18084;SDS011;9169;44.492;11.372;2023-01-29T13:52:19;14.73;;;12.30;;
18084;SDS011;9169;44.492;11.372;2023-01-29T13:55:22;13.63;;;11.83;;
18084;SDS011;9169;44.492;11.372;2023-01-29T13:57:57;13.00;;;11.53;;
18084;SDS011;9169;44.492;11.372;2023-01-29T14:06:48;12.87;;;11.47;;
18084;SDS011;9169;44.492;11.372;2023-01-29T14:12:32;14.83;;;12.07;;
18084;SDS011;9169;44.492;11.372;2023-01-29T14:15:13;13.40;;;12.03;;
18084;SDS011;9169;44.492;11.372;2023-01-29T14:18:03;15.17;;;13.50;;
18084;SDS011;9169;44.492;11.372;2023-01-29T14:20:58;14.07;;;10.93;;
18084;SDS011;9169;44.492;11.372;2023-01-29T14:23:34;12.97;;;11.20;;
18084;SDS011;9169;44.492;11.372;2023-01-29T14:26:20;13.10;;;11.30;;
18084;SDS011;9169;44.492;11.372;2023-01-29T14:28:55;14.53;;;12.27;;
18084;SDS011;9169;44.492;11.372;2023-01-29T14:31:31;14.23;;;11.23;;
18084;SDS011;9169;44.492;11.372;2023-01-29T14:34:11;14.90;;;11.90;;
18084;SDS011;9169;44.492;11.372;2023-01-29T14:36:43;13.57;;;11.00;;
18084;SDS011;9169;44.492;11.372;2023-01-29T14:39:22;15.70;;;12.23;;
18084;SDS011;9169;44.492;11.372;2023-01-29T14:41:56;15.47;;;12.10;;
18084;SDS011;9169;44.492;11.372;2023-01-29T14:47:18;15.80;;;12.00;;
18084;SDS011;9169;44.492;11.372;2023-01-29T14:49:51;16.53;;;11.87;;
18084;SDS011;9169;44.492;11.372;2023-01-29T14:52:22;14.27;;;11.00;;
18084;SDS011;9169;44.492;11.372;2023-01-29T14:54:58;15.50;;;12.30;;
18084;SDS011;9169;44.492;11.372;2023-01-29T14:57:29;14.67;;;11.60;;
18084;SDS011;9169;44.492;11.372;2023-01-29T14:59:59;16.87;;;11.17;;
18084;SDS011;9169;44.492;11.372;2023-01-29T15:02:31;15.10;;;11.10;;
18084;SDS011;9169;44.492;11.372;2023-01-29T15:05:07;17.87;;;11.63;;
18084;SDS011;9169;44.492;11.372;2023-01-29T15:07:40;14.10;;;11.70;;
18084;SDS011;9169;44.492;11.372;2023-01-29T15:10:17;20.60;;;12.00;;
18084;SDS011;9169;44.492;11.372;2023-01-29T15:12:49;14.03;;;11.67;;
18084;SDS011;9169;44.492;11.372;2023-01-29T15:15:24;14.83;;;10.30;;
18084;SDS011;9169;44.492;11.372;2023-01-29T15:18:02;17.20;;;11.83;;
18084;SDS011;9169;44.492;11.372;2023-01-29T15:20:34;19.23;;;10.63;;
18084;SDS011;9169;44.492;11.372;2023-01-29T15:23:19;15.30;;;10.77;;